createdAt,value
2022-09-20T00:01:42.463Z,98673.75
2022-09-20T00:04:11.095Z,98690.53
2022-09-20T00:06:40.960Z,98687.25
2022-09-20T00:09:09.307Z,98682.22
2022-09-20T00:11:38.447Z,98676.38
2022-09-20T00:14:09.664Z,98698.47
2022-09-20T00:16:41.485Z,98695.72
2022-09-20T00:19:10.848Z,98703.81
2022-09-20T00:21:40.773Z,98699.75
2022-09-20T00:24:09.208Z,98705.97
2022-09-20T00:26:38.192Z,98711.34
2022-09-20T00:29:06.616Z,98708.22
2022-09-20T00:31:35.746Z,98714.06
2022-09-20T00:34:21.846Z,98710.53
2022-09-20T00:36:51.580Z,98739.41
2022-09-20T00:39:19.956Z,98729.66
2022-09-20T00:41:48.544Z,98725.31
2022-09-20T00:44:42.835Z,98730.41
2022-09-20T00:47:17.462Z,98738.50
2022-09-20T00:49:46.038Z,98732.50
2022-09-20T00:52:17.175Z,98737.53
2022-09-20T00:54:45.731Z,98753.72
2022-09-20T00:57:14.147Z,98761.97
2022-09-20T00:59:47.547Z,98759.47
2022-09-20T01:02:19.393Z,98762.78
2022-09-20T01:04:50.143Z,98754.31
2022-09-20T01:07:23.620Z,98774.16
2022-09-20T01:09:52.895Z,98757.16
2022-09-20T01:12:24.919Z,98761.50
2022-09-20T01:14:55.062Z,98764.19
2022-09-20T01:17:26.706Z,98765.84
2022-09-20T01:20:09.650Z,98776.41
2022-09-20T01:22:49.816Z,98768.91
2022-09-20T01:25:21.700Z,98777.59
2022-09-20T01:27:53.693Z,98785.41
2022-09-20T01:30:25.579Z,98790.28
2022-09-20T01:33:04.067Z,98795.66
2022-09-20T01:35:35.838Z,98788.41
2022-09-20T01:38:17.850Z,98799.88
2022-09-20T01:40:55.032Z,98811.72
2022-09-20T01:43:33.072Z,98802.34
2022-09-20T01:46:12.483Z,98818.16
2022-09-20T01:48:43.570Z,98825.22
2022-09-20T01:51:50.556Z,98824.03
2022-09-20T01:54:48.880Z,98808.88
2022-09-20T01:57:58.657Z,98835.19
2022-09-20T02:00:31.173Z,98815.78
2022-09-20T02:03:38.476Z,98822.34
2022-09-20T02:06:20.464Z,98830.25
2022-09-20T02:09:21.650Z,98828.38
2022-09-20T02:12:10.789Z,98833.16
2022-09-20T02:14:50.723Z,98838.34
2022-09-20T02:17:29.086Z,98850.78
2022-09-20T02:20:17.338Z,98854.75
2022-09-20T02:23:13.519Z,98858.44
2022-09-20T02:25:54.644Z,98862.84
2022-09-20T02:28:40.578Z,98870.28
2022-09-20T02:31:18.739Z,98887.50
2022-09-20T02:34:29.361Z,98869.28
2022-09-20T02:37:16.326Z,98872.75
2022-09-20T02:39:57.416Z,98875.56
2022-09-20T02:42:36.353Z,98892.25
2022-09-20T02:45:11.704Z,98896.59
2022-09-20T02:47:41.570Z,98897.41
2022-09-20T02:50:24.548Z,98905.50
2022-09-20T02:53:04.712Z,98901.16
2022-09-20T02:55:42.038Z,98926.47
2022-09-20T02:58:33.488Z,98920.44
2022-09-20T03:01:11.129Z,98925.38
2022-09-20T03:03:51.599Z,98938.88
2022-09-20T03:06:31.675Z,98940.72
2022-09-20T03:09:07.960Z,98942.16
2022-09-20T03:11:45.346Z,98961.28
2022-09-20T03:14:23.145Z,98964.00
2022-09-20T03:17:11.467Z,98963.56
2022-09-20T03:19:57.806Z,98971.41
2022-09-20T03:22:39.419Z,98978.91
2022-09-20T03:25:40.262Z,98978.69
2022-09-20T03:28:24.396Z,98994.66
2022-09-20T03:31:05.213Z,99000.34
2022-09-20T03:33:47.038Z,98984.78
2022-09-20T03:36:35.965Z,98991.97
2022-09-20T03:39:10.971Z,98996.53
2022-09-20T03:41:58.378Z,99006.88
2022-09-20T03:44:55.352Z,99015.44
2022-09-20T03:47:42.976Z,99009.22
2022-09-20T03:50:44.057Z,99023.09
2022-09-20T03:53:41.011Z,99022.66
2022-09-20T03:56:36.003Z,99018.22
2022-09-20T03:59:15.637Z,99029.78
2022-09-20T04:02:11.175Z,99023.78
2022-09-20T04:04:49.491Z,99034.88
2022-09-20T04:07:24.646Z,99032.84
2022-09-20T04:10:20.204Z,99041.94
2022-09-20T04:13:04.257Z,99051.09
2022-09-20T04:15:43.038Z,99047.09
2022-09-20T04:18:23.672Z,99056.19
2022-09-20T04:20:58.748Z,99053.03
2022-09-20T04:23:37.524Z,99063.22
2022-09-20T04:26:06.387Z,99075.25
2022-09-20T04:28:42.649Z,99073.34
2022-09-20T04:31:25.652Z,99083.34
2022-09-20T04:33:58.283Z,99082.13
2022-09-20T04:36:37.033Z,99087.47
2022-09-20T04:39:18.863Z,99088.91
2022-09-20T04:42:23.440Z,99093.50
2022-09-20T04:45:37.387Z,99095.72
2022-09-20T04:48:52.964Z,99095.34
2022-09-20T04:52:00.846Z,99100.97
2022-09-20T04:55:02.515Z,99112.84
2022-09-20T04:58:04.783Z,99107.00
2022-09-20T05:00:52.442Z,99114.03
2022-09-20T05:03:52.436Z,99119.75
2022-09-20T05:06:38.448Z,99123.03
2022-09-20T05:09:33.727Z,99117.19
2022-09-20T05:12:53.576Z,99125.72
2022-09-20T05:15:36.571Z,99127.75
2022-09-20T05:18:35.238Z,99128.75
2022-09-20T05:21:16.905Z,99141.25
2022-09-20T05:24:01.737Z,99140.19
2022-09-20T05:26:42.844Z,99156.16
2022-09-20T05:29:19.830Z,99160.06
2022-09-20T05:31:54.231Z,99155.09
2022-09-20T05:34:32.138Z,99161.94
2022-09-20T05:37:12.644Z,99164.34
2022-09-20T05:39:48.189Z,99175.78
2022-09-20T05:42:21.057Z,99171.44
2022-09-20T05:45:03.348Z,99176.50
2022-09-20T05:47:41.700Z,99177.94
2022-09-20T05:50:31.355Z,99177.94
2022-09-20T05:53:11.757Z,99178.53
2022-09-20T05:56:01.260Z,99180.56
2022-09-20T05:58:50.123Z,99179.75
2022-09-20T06:01:24.580Z,99181.31
2022-09-20T06:04:01.443Z,99193.28
2022-09-20T06:06:38.143Z,99189.88
2022-09-20T06:09:34.368Z,99196.53
2022-09-20T06:12:29.899Z,99199.00
2022-09-20T06:15:04.982Z,99207.50
2022-09-20T06:17:39.633Z,99230.13
2022-09-20T06:20:19.771Z,99215.56
2022-09-20T06:22:51.986Z,99214.97
2022-09-20T06:25:26.144Z,99218.88
2022-09-20T06:27:57.408Z,99236.97
2022-09-20T06:30:30.258Z,99234.28
2022-09-20T06:33:00.998Z,99241.69
2022-09-20T06:35:41.448Z,99232.09
2022-09-20T06:38:49.574Z,99240.94
2022-09-20T06:41:29.940Z,99253.47
2022-09-20T06:44:00.947Z,99246.72
2022-09-20T06:46:31.540Z,99251.63
2022-09-20T06:49:00.251Z,99256.50
2022-09-20T06:51:30.066Z,99257.91
2022-09-20T06:53:58.648Z,99261.38
2022-09-20T06:59:17.371Z,99267.69
2022-09-20T07:01:45.942Z,99275.13
2022-09-20T07:04:14.370Z,99272.53
2022-09-20T07:06:42.741Z,99274.50
2022-09-20T07:09:29.312Z,99275.44
2022-09-20T07:11:59.946Z,99264.16
2022-09-20T07:14:28.968Z,99269.63
2022-09-20T07:16:57.432Z,99270.25
2022-09-20T07:19:25.792Z,99274.75
2022-09-20T07:21:54.383Z,99290.75
2022-09-20T07:24:22.745Z,99292.72
2022-09-20T07:27:00.589Z,99296.41
2022-09-20T07:29:30.200Z,99288.66
2022-09-20T07:31:58.967Z,99295.66
2022-09-20T07:34:27.780Z,99298.38
2022-09-20T07:36:59.811Z,99305.00
2022-09-20T07:39:28.559Z,99321.25
2022-09-20T07:41:58.380Z,99305.69
2022-09-20T07:44:27.993Z,99308.38
2022-09-20T07:46:59.360Z,99313.72
2022-09-20T07:49:30.062Z,99317.69
2022-09-20T07:51:59.096Z,99309.78
2022-09-20T07:54:28.373Z,99321.00
2022-09-20T07:56:58.194Z,99309.69
2022-09-20T07:59:26.709Z,99316.53
2022-09-20T08:01:55.131Z,99314.53
2022-09-20T08:04:23.545Z,99314.88
2022-09-20T08:06:51.932Z,99315.50
2022-09-20T08:09:20.564Z,99311.69
2022-09-20T08:11:49.578Z,99304.69
2022-09-20T08:14:20.921Z,99306.78
2022-09-20T08:16:50.619Z,99310.72
2022-09-20T08:19:21.010Z,99312.28
2022-09-20T08:21:50.620Z,99323.41
2022-09-20T08:24:19.133Z,99322.13
2022-09-20T08:26:48.454Z,99319.53
2022-09-20T08:29:16.825Z,99320.50
2022-09-20T08:31:47.346Z,99324.63
2022-09-20T08:34:18.539Z,99325.31
2022-09-20T08:36:50.273Z,99335.31
2022-09-20T08:42:16.230Z,99350.78
2022-09-20T08:45:00.447Z,99338.66
2022-09-20T08:47:34.508Z,99349.75
2022-09-20T08:50:17.724Z,99344.69
2022-09-20T08:52:48.725Z,99351.03
2022-09-20T08:55:19.002Z,99345.66
2022-09-20T08:57:50.453Z,99344.44
2022-09-20T09:00:21.007Z,99350.31
2022-09-20T09:02:53.275Z,99349.56
2022-09-20T09:05:32.787Z,99359.00
2022-09-20T09:08:04.712Z,99351.91
2022-09-20T09:10:42.596Z,99361.16
2022-09-20T09:13:23.592Z,99356.69
2022-09-20T09:15:57.396Z,99364.41
2022-09-20T09:18:35.333Z,99363.97
2022-09-20T09:21:05.619Z,99366.91
2022-09-20T09:23:42.585Z,99369.78
2022-09-20T09:26:18.939Z,99363.09
2022-09-20T09:28:48.524Z,99368.03
2022-09-20T09:31:26.923Z,99368.19
2022-09-20T09:33:56.769Z,99375.19
2022-09-20T09:36:26.711Z,99374.25
2022-09-20T09:39:17.606Z,99386.47
2022-09-20T09:41:46.676Z,99389.81
2022-09-20T09:44:24.199Z,99384.59
2022-09-20T09:46:54.549Z,99393.94
2022-09-20T09:49:25.871Z,99383.47
2022-09-20T09:52:08.093Z,99403.41
2022-09-20T09:54:39.319Z,99405.78
2022-09-20T09:57:32.049Z,99396.81
2022-09-20T10:00:16.606Z,99419.84
2022-09-20T10:03:21.111Z,99403.44
2022-09-20T10:06:08.287Z,99409.34
2022-09-20T10:08:45.835Z,99415.00
2022-09-20T10:11:30.571Z,99398.22
2022-09-20T10:14:11.891Z,99408.50
2022-09-20T10:16:59.244Z,99431.66
2022-09-20T10:19:38.080Z,99408.28
2022-09-20T10:22:19.757Z,99428.69
2022-09-20T10:24:57.197Z,99421.72
2022-09-20T10:27:39.846Z,99425.97
2022-09-20T10:30:14.406Z,99427.03
2022-09-20T10:33:01.013Z,99424.78
2022-09-20T10:35:38.201Z,99463.06
2022-09-20T10:38:19.873Z,99438.59
2022-09-20T10:41:35.189Z,99436.94
2022-09-20T10:44:11.820Z,99432.72
2022-09-20T10:46:54.785Z,99441.78
2022-09-20T10:49:34.277Z,99441.69
2022-09-20T10:52:31.760Z,99440.84
2022-09-20T10:55:20.525Z,99451.38
2022-09-20T10:58:06.239Z,99444.63
2022-09-20T11:00:46.878Z,99474.41
2022-09-20T11:03:28.141Z,99457.84
2022-09-20T11:06:09.755Z,99468.81
2022-09-20T11:08:41.261Z,99478.81
2022-09-20T11:11:17.211Z,99475.25
2022-09-20T11:13:56.600Z,99491.53
2022-09-20T11:16:30.612Z,99484.41
2022-09-20T11:19:02.432Z,99484.41
2022-09-20T11:21:36.601Z,99510.06
2022-09-20T11:24:12.594Z,99499.78
2022-09-20T11:26:47.882Z,99508.16
2022-09-20T11:29:26.171Z,99508.41
2022-09-20T11:32:01.780Z,99519.28
2022-09-20T11:34:33.223Z,99513.00
2022-09-20T11:37:03.493Z,99533.00
2022-09-20T11:39:40.899Z,99526.25
2022-09-20T11:42:15.388Z,99536.88
2022-09-20T11:44:44.158Z,99519.94
2022-09-20T11:47:36.651Z,99521.38
2022-09-20T11:50:48.626Z,99514.69
2022-09-20T11:53:28.190Z,99527.22
2022-09-20T11:56:02.333Z,99527.44
2022-09-20T11:58:33.960Z,99537.72
2022-09-20T12:01:02.438Z,99538.88
2022-09-20T12:03:36.523Z,99544.25
2022-09-20T12:06:07.191Z,99528.97
2022-09-20T12:08:40.221Z,99546.06
2022-09-20T12:11:12.058Z,99551.34
2022-09-20T12:13:44.711Z,99543.00
2022-09-20T12:16:17.146Z,99561.84
2022-09-20T12:19:03.857Z,99552.25
2022-09-20T12:21:32.263Z,99563.19
2022-09-20T12:24:19.833Z,99558.78
2022-09-20T12:26:49.437Z,99579.75
2022-09-20T12:29:51.381Z,99578.72
2022-09-20T12:32:46.723Z,99560.75
2022-09-20T12:36:00.739Z,99568.31
2022-09-20T12:38:33.329Z,99566.53
2022-09-20T12:41:04.691Z,99586.38
2022-09-20T13:42:30.003Z,99594.38
2022-09-20T13:44:59.826Z,99603.22
2022-09-20T13:47:31.360Z,99594.84
2022-09-20T13:50:03.660Z,99612.34
2022-09-20T13:52:33.127Z,99605.59
2022-09-20T13:55:01.510Z,99607.38
2022-09-20T13:57:33.299Z,99614.00
2022-09-20T14:00:02.342Z,99612.66
2022-09-20T14:02:40.586Z,99618.19
2022-09-20T14:05:18.085Z,99605.47
2022-09-20T14:07:48.592Z,99606.00
2022-09-20T14:10:37.118Z,99607.19
2022-09-20T14:13:09.677Z,99609.44
2022-09-20T14:15:42.583Z,99611.66
2022-09-20T14:18:16.173Z,99609.22
2022-09-20T14:20:45.433Z,99607.19
2022-09-20T14:23:24.218Z,99623.13
2022-09-20T14:26:09.051Z,99620.41
2022-09-20T14:28:38.848Z,99623.03
2022-09-20T14:31:12.948Z,99627.66
2022-09-20T14:33:45.047Z,99634.00
2022-09-20T14:36:16.523Z,99633.75
2022-09-20T14:38:46.289Z,99637.06
2022-09-20T14:41:15.434Z,99637.69
2022-09-20T14:43:45.868Z,99649.50
2022-09-20T14:46:17.872Z,99647.69
2022-09-20T14:48:46.313Z,99639.88
2022-09-20T14:51:25.675Z,99655.72
2022-09-20T14:54:15.143Z,99652.63
2022-09-20T14:56:51.070Z,99657.81
2022-09-20T14:59:26.858Z,99658.31
2022-09-20T15:01:59.209Z,99651.56
2022-09-20T15:04:29.133Z,99653.00
2022-09-20T15:07:01.441Z,99656.03
2022-09-20T15:09:30.921Z,99649.34
2022-09-20T15:12:04.405Z,99653.97
2022-09-20T15:14:37.836Z,99657.13
2022-09-20T15:17:07.311Z,99665.16
2022-09-20T15:19:35.671Z,99670.22
2022-09-20T15:22:04.111Z,99672.09
2022-09-20T15:24:32.490Z,99674.19
2022-09-20T15:27:00.851Z,99681.97
2022-09-20T15:29:29.347Z,99678.88
2022-09-20T15:31:59.117Z,99689.53
2022-09-20T15:34:27.760Z,99686.34
2022-09-20T15:36:56.234Z,99687.84
2022-09-20T15:39:24.844Z,99694.72
2022-09-20T15:41:53.919Z,99689.72
2022-09-20T15:44:22.430Z,99692.91
2022-09-20T15:46:52.611Z,99695.41
2022-09-20T15:49:22.945Z,99687.34
2022-09-20T15:51:52.798Z,99697.00
2022-09-20T15:54:21.305Z,99702.41
2022-09-20T15:56:53.275Z,99708.66
2022-09-20T15:59:23.297Z,99713.19
2022-09-20T16:01:51.822Z,99719.06
2022-09-20T16:04:22.515Z,99725.75
2022-09-20T16:06:51.630Z,99717.47
2022-09-20T16:09:21.285Z,99722.28
2022-09-20T16:11:50.166Z,99725.00
2022-09-20T16:14:18.587Z,99721.22
2022-09-20T16:16:47.003Z,99727.72
2022-09-20T16:19:17.607Z,99725.44
2022-09-20T16:21:53.615Z,99731.09
2022-09-20T16:24:26.188Z,99736.13
2022-09-20T16:26:54.818Z,99736.97
2022-09-20T16:29:25.198Z,99744.09
2022-09-20T16:31:55.041Z,99743.06
2022-09-20T16:34:28.528Z,99740.34
2022-09-20T16:37:00.099Z,99738.69
2022-09-20T16:39:29.525Z,99737.03
2022-09-20T16:42:01.107Z,99741.00
2022-09-20T16:44:29.428Z,99747.47
2022-09-20T16:46:57.806Z,99748.50
2022-09-20T16:49:28.850Z,99744.72
2022-09-20T16:51:58.656Z,99746.59
2022-09-20T16:54:31.592Z,99756.63
2022-09-20T16:57:00.511Z,99751.84
2022-09-20T16:59:28.965Z,99748.53
2022-09-20T17:01:57.437Z,99752.09
2022-09-20T17:04:25.838Z,99750.19
2022-09-20T17:06:54.342Z,99753.28
2022-09-20T17:09:24.191Z,99754.34
2022-09-20T17:11:52.833Z,99752.28
2022-09-20T17:14:22.071Z,99756.50
2022-09-20T17:16:50.625Z,99758.66
2022-09-20T17:19:20.496Z,99763.25
2022-09-20T17:21:51.099Z,99757.00
2022-09-20T17:24:21.593Z,99755.56
2022-09-20T17:26:52.072Z,99767.00
2022-09-20T17:29:21.577Z,99761.63
2022-09-20T17:31:55.088Z,99771.00
2022-09-20T17:34:25.568Z,99771.22
2022-09-20T17:36:55.578Z,99778.13
2022-09-20T17:39:24.496Z,99774.78
2022-09-20T17:41:54.401Z,99782.09
2022-09-20T17:44:22.867Z,99786.50
2022-09-20T17:46:54.061Z,99788.34
2022-09-20T17:49:24.350Z,99794.63
2022-09-20T17:51:54.500Z,99785.88
2022-09-20T17:54:24.604Z,99785.25
2022-09-20T17:56:56.246Z,99780.44
2022-09-20T17:59:25.811Z,99779.19
2022-09-20T18:01:55.332Z,99779.19
2022-09-20T18:04:24.634Z,99785.44
2022-09-20T18:06:54.744Z,99782.09
2022-09-20T18:09:25.412Z,99786.09
2022-09-20T18:11:56.581Z,99783.81
2022-09-20T18:14:27.605Z,99784.66
2022-09-20T18:16:58.245Z,99784.22
2022-09-20T18:19:32.784Z,99781.50
2022-09-20T18:22:02.479Z,99786.31
2022-09-20T18:24:31.600Z,99794.03
2022-09-20T18:27:01.810Z,99794.31
2022-09-20T18:29:36.741Z,99795.16
2022-09-20T18:32:05.559Z,99796.06
2022-09-20T18:34:34.305Z,99797.09
2022-09-20T18:37:03.945Z,99791.06
2022-09-20T18:39:35.031Z,99793.16
2022-09-20T18:42:07.881Z,99792.09
2022-09-20T18:44:36.457Z,99793.16
2022-09-20T18:47:06.023Z,99799.41
2022-09-20T18:49:34.500Z,99796.69
2022-09-20T18:52:04.062Z,99801.28
2022-09-20T18:54:33.741Z,99794.88
2022-09-20T18:57:02.773Z,99801.97
2022-09-20T18:59:32.955Z,99804.44
2022-09-20T19:02:13.919Z,99813.03
2022-09-20T19:05:17.770Z,99803.66
2022-09-20T19:08:00.059Z,99811.81
2022-09-20T19:10:40.364Z,99809.31
2022-09-20T19:13:27.151Z,99812.69
2022-09-20T19:16:16.910Z,99808.50
2022-09-20T19:19:13.477Z,99801.22
2022-09-20T19:21:47.788Z,99813.94
2022-09-20T19:24:31.338Z,99811.22
2022-09-20T19:26:59.917Z,99815.19
2022-09-20T19:29:29.895Z,99815.81
2022-09-20T19:32:01.026Z,99814.59
2022-09-20T19:34:30.821Z,99808.34
2022-09-20T19:37:09.059Z,99815.00
2022-09-20T19:39:55.520Z,99818.97
2022-09-20T19:42:37.217Z,99820.84
2022-09-20T19:45:16.740Z,99818.56
2022-09-20T19:47:55.856Z,99823.16
2022-09-20T19:50:33.419Z,99823.38
2022-09-20T19:53:04.113Z,99826.50
2022-09-20T19:55:33.666Z,99827.16
2022-09-20T19:58:03.010Z,99836.28
2022-09-20T20:00:32.294Z,99833.38
2022-09-20T20:03:02.889Z,99836.28
2022-09-20T20:05:32.231Z,99832.56
2022-09-20T20:08:15.734Z,99835.25
2022-09-20T20:10:55.541Z,99837.13
2022-09-20T20:13:52.016Z,99842.75
2022-09-20T20:16:28.805Z,99843.81
2022-09-20T20:19:12.511Z,99846.69
2022-09-20T20:21:51.359Z,99843.59
2022-09-20T20:24:29.918Z,99844.63
2022-09-20T20:26:58.291Z,99845.69
2022-09-20T20:29:26.683Z,99849.63
2022-09-20T20:31:55.122Z,99848.41
2022-09-20T20:34:26.642Z,99846.34
2022-09-20T20:37:00.978Z,99844.03
2022-09-20T20:39:31.719Z,99843.59
2022-09-20T20:42:02.434Z,99844.84
2022-09-20T20:44:31.860Z,99844.41
2022-09-20T20:47:00.244Z,99843.38
2022-09-20T20:49:30.072Z,99845.47
2022-09-20T20:51:59.720Z,99848.81
2022-09-20T20:54:28.065Z,99845.06
2022-09-20T20:56:56.410Z,99838.41
2022-09-20T20:59:24.803Z,99844.66
2022-09-20T21:01:53.261Z,99843.00
2022-09-20T21:04:21.800Z,99852.09
2022-09-20T21:06:51.670Z,99844.84
2022-09-20T21:09:20.038Z,99841.50
2022-09-20T21:11:48.614Z,99847.53
2022-09-20T21:14:17.190Z,99847.75
2022-09-20T21:16:45.676Z,99852.94
2022-09-20T21:19:16.602Z,99851.47
2022-09-20T21:21:47.377Z,99851.25
2022-09-20T21:24:18.117Z,99847.75
2022-09-20T21:26:47.677Z,99845.44
2022-09-20T21:29:17.581Z,99851.03
2022-09-20T21:31:47.443Z,99848.56
2022-09-20T21:34:16.994Z,99850.84
2022-09-20T21:36:45.779Z,99851.03
2022-09-20T21:39:14.581Z,99851.47
2022-09-20T21:41:44.788Z,99851.25
2022-09-20T21:44:15.087Z,99847.91
2022-09-20T21:46:43.551Z,99849.56
2022-09-20T21:49:14.342Z,99844.19
2022-09-20T21:51:44.137Z,99844.78
2022-09-20T21:54:12.591Z,99853.72
2022-09-20T21:56:41.837Z,99854.94
2022-09-20T21:59:11.692Z,99843.94
2022-09-20T22:01:41.331Z,99850.13
2022-09-20T22:04:11.641Z,99854.47
2022-09-20T22:06:41.770Z,99853.25
2022-09-20T22:09:12.436Z,99842.63
2022-09-20T22:11:42.331Z,99856.94
2022-09-20T22:14:14.213Z,99854.19
2022-09-20T22:16:44.066Z,99854.41
2022-09-20T22:19:14.931Z,99857.94
2022-09-20T22:21:44.784Z,99856.06
2022-09-20T22:24:14.863Z,99852.94
2022-09-20T22:26:44.990Z,99854.78
2022-09-20T22:29:15.038Z,99858.69
2022-09-20T22:31:46.228Z,99855.56
2022-09-20T22:34:16.935Z,99868.00
2022-09-20T22:36:45.847Z,99866.13
2022-09-20T22:39:14.805Z,99869.66
2022-09-20T22:41:44.603Z,99872.38
2022-09-20T22:44:14.396Z,99874.41
2022-09-20T22:46:42.939Z,99875.06
2022-09-20T22:49:11.250Z,99867.63
2022-09-20T22:51:40.400Z,99867.63
2022-09-20T22:54:10.759Z,99870.94
2022-09-20T22:56:41.426Z,99862.44
2022-09-20T22:59:11.721Z,99868.91
2022-09-20T23:01:43.525Z,99867.66
2022-09-20T23:04:13.674Z,99862.22
2022-09-20T23:06:43.953Z,99872.19
2022-09-20T23:09:14.076Z,99864.34
2022-09-20T23:11:43.422Z,99867.66
2022-09-20T23:14:13.495Z,99871.63
2022-09-20T23:16:43.773Z,99869.78
2022-09-20T23:19:13.107Z,99872.25
2022-09-20T23:21:43.124Z,99872.06
2022-09-20T23:24:13.177Z,99875.59
2022-09-20T23:26:42.983Z,99876.63
2022-09-20T23:29:12.862Z,99877.44
2022-09-20T23:31:46.154Z,99874.97
2022-09-20T23:34:16.236Z,99881.59
2022-09-20T23:36:45.427Z,99877.22
2022-09-20T23:39:14.446Z,99881.97
2022-09-20T23:41:46.941Z,99878.84
2022-09-20T23:44:18.480Z,99884.81
2022-09-20T23:46:48.219Z,99892.66
2022-09-20T23:49:16.633Z,99889.53
2022-09-20T23:51:45.115Z,99894.06
2022-09-20T23:54:13.448Z,99897.34
2022-09-20T23:56:42.923Z,99901.44
2022-09-20T23:59:11.312Z,99888.41
